Time;durP1;ratioP1;P1;durP2;ratioP2;P2;SDS_P1;SDS_P2;PMS_P1;PMS_P2;Temp;Humidity;BMP_temperature;BMP_pressure;BME280_temperature;BME280_humidity;BME280_pressure;Samples;Min_cycle;Max_cycle;Signal;HPM_P1;HPM_P2
2021/11/24 00:01:10;;;;;;;0.30;0.30;;;;;;;5.16;100.00;101881.31;5068812;28;20044;-80
2021/11/24 00:03:38;;;;;;;0.20;0.20;;;;;;;5.27;100.00;101884.19;5068395;28;20044;-80
2021/11/24 00:06:11;;;;;;;0.20;0.20;;;;;;;5.27;100.00;101889.56;5064305;28;20049;-82
2021/11/24 00:08:48;;;;;;;0.30;0.30;;;;;;;5.26;100.00;101896.00;5058302;28;20043;-80
2021/11/24 00:11:21;;;;;;;0.20;0.20;;;;;;;5.27;100.00;101886.88;5070634;28;20036;-80
2021/11/24 00:13:56;;;;;;;0.30;0.30;;;;;;;5.28;100.00;101880.41;5071153;28;20412;-80
2021/11/24 00:16:29;;;;;;;0.20;0.20;;;;;;;5.33;100.00;101874.38;5070297;28;20492;-80
2021/11/24 00:19:03;;;;;;;0.20;0.20;;;;;;;5.23;100.00;101868.59;5069788;28;20051;-81
2021/11/24 00:21:36;;;;;;;0.25;0.25;;;;;;;5.25;100.00;101872.75;5064860;28;20431;-80
2021/11/24 00:24:11;;;;;;;0.20;0.20;;;;;;;5.24;100.00;101878.38;5064082;28;20064;-81
2021/11/24 00:26:39;;;;;;;0.20;0.20;;;;;;;5.30;100.00;101882.06;5060561;28;20504;-81
2021/11/24 00:29:12;;;;;;;0.20;0.20;;;;;;;5.28;100.00;101880.41;5060243;28;20044;-81
2021/11/24 00:31:41;;;;;;;0.20;0.20;;;;;;;5.31;100.00;101872.94;5067195;28;20037;-80
2021/11/24 00:34:09;;;;;;;0.20;0.20;;;;;;;5.30;100.00;101877.50;5061595;28;20126;-81
2021/11/24 00:36:43;;;;;;;0.20;0.20;;;;;;;5.34;100.00;101876.03;5068168;28;20040;-81
2021/11/24 00:39:17;;;;;;;0.20;0.20;;;;;;;5.34;100.00;101884.13;5063481;28;20051;-81
2021/11/24 00:41:51;;;;;;;0.20;0.20;;;;;;;5.34;100.00;101869.81;5066217;28;20052;-81
2021/11/24 00:44:24;;;;;;;0.20;0.20;;;;;;;5.31;100.00;101871.06;5068263;28;20056;-82
2021/11/24 00:46:57;;;;;;;0.20;0.20;;;;;;;5.30;100.00;101865.88;5060870;28;20057;-80
2021/11/24 00:49:26;;;;;;;0.30;0.30;;;;;;;5.23;100.00;101857.81;5067470;28;20469;-81
2021/11/24 00:51:59;;;;;;;0.20;0.20;;;;;;;5.33;100.00;101862.75;5058328;28;20052;-81
2021/11/24 00:54:29;;;;;;;0.30;0.30;;;;;;;5.34;100.00;101864.41;5061094;28;20049;-81
2021/11/24 00:56:57;;;;;;;0.20;0.20;;;;;;;5.38;100.00;101865.63;5064795;28;20049;-81
2021/11/24 00:59:25;;;;;;;0.30;0.30;;;;;;;5.34;100.00;101865.22;5067472;28;20051;-81
2021/11/24 01:01:59;;;;;;;0.20;0.20;;;;;;;5.37;100.00;101855.88;5058396;28;20045;-80
2021/11/24 01:04:32;;;;;;;0.20;0.20;;;;;;;5.36;100.00;101859.59;5070386;28;20487;-81
2021/11/24 01:07:06;;;;;;;0.30;0.30;;;;;;;5.46;100.00;101862.69;5062754;28;20045;-81
2021/11/24 01:09:35;;;;;;;0.20;0.20;;;;;;;5.32;100.00;101853.81;5075677;28;20480;-82
2021/11/24 01:12:09;;;;;;;0.20;0.20;;;;;;;5.53;100.00;101862.66;5057694;28;20119;-81
2021/11/24 01:14:42;;;;;;;0.20;0.20;;;;;;;5.47;100.00;101871.59;5072808;28;20056;-81
2021/11/24 01:17:16;;;;;;;0.20;0.20;;;;;;;5.38;100.00;101852.94;5059317;28;20413;-81
2021/11/24 01:19:45;;;;;;;0.30;0.30;;;;;;;5.34;100.00;101840.13;5066605;28;20033;-81
2021/11/24 01:22:13;;;;;;;0.20;0.20;;;;;;;5.41;100.00;101849.84;5060626;28;20049;-81
2021/11/24 01:24:48;;;;;;;0.20;0.20;;;;;;;5.53;100.00;101849.97;5068330;28;20416;-81
2021/11/24 01:27:16;;;;;;;0.20;0.20;;;;;;;5.48;100.00;101851.66;5060421;28;20051;-81
2021/11/24 01:29:49;;;;;;;0.20;0.20;;;;;;;5.47;100.00;101845.44;5066868;28;20047;-81
2021/11/24 01:32:23;;;;;;;0.20;0.20;;;;;;;5.39;100.00;101840.28;5064823;28;20048;-80
2021/11/24 01:34:51;;;;;;;0.30;0.30;;;;;;;5.48;100.00;101844.38;5060585;28;20469;-80
2021/11/24 01:37:24;;;;;;;0.30;0.30;;;;;;;5.47;100.00;101855.41;5062228;28;20052;-80
2021/11/24 01:39:59;;;;;;;0.30;0.30;;;;;;;5.49;100.00;101845.22;5068774;28;20393;-80
2021/11/24 01:42:33;;;;;;;0.30;0.30;;;;;;;5.48;100.00;101843.56;5064613;28;20039;-80
2021/11/24 01:45:10;;;;;;;0.28;0.28;;;;;;;5.51;100.00;101848.50;5065112;28;20672;-80
2021/11/24 01:47:44;;;;;;;0.20;0.20;;;;;;;5.45;100.00;101831.31;5061606;28;20493;-81
2021/11/24 01:50:12;;;;;;;0.30;0.30;;;;;;;5.47;100.00;101831.94;5064133;28;20045;-80
2021/11/24 01:52:41;;;;;;;0.30;0.30;;;;;;;5.44;100.00;101835.06;5063278;28;20056;-80
2021/11/24 01:55:12;;;;;;;0.20;0.20;;;;;;;5.50;100.00;101823.41;5056036;28;20057;-80
2021/11/24 01:57:43;;;;;;;0.30;0.30;;;;;;;5.44;100.00;101825.09;5061893;28;20049;-80
2021/11/24 02:00:20;;;;;;;0.20;0.20;;;;;;;5.50;100.00;101828.81;5066324;28;20048;-80
2021/11/24 02:02:54;;;;;;;0.30;0.30;;;;;;;5.52;100.00;101809.69;5071978;28;20404;-80
2021/11/24 02:05:27;;;;;;;0.28;0.28;;;;;;;5.57;100.00;101810.69;5072384;28;20048;-80
2021/11/24 02:08:00;;;;;;;0.20;0.20;;;;;;;5.46;100.00;101800.59;5070690;28;20485;-80
2021/11/24 02:10:35;;;;;;;0.28;0.28;;;;;;;5.51;100.00;101814.25;5068347;28;20063;-80
2021/11/24 02:13:08;;;;;;;0.30;0.30;;;;;;;5.51;100.00;101816.13;5067231;28;20431;-80
2021/11/24 02:15:37;;;;;;;0.30;0.30;;;;;;;5.50;100.00;101815.31;5076312;28;20048;-80
2021/11/24 02:18:10;;;;;;;0.20;0.20;;;;;;;5.50;100.00;101812.59;5065274;28;20052;-80
2021/11/24 02:20:46;;;;;;;0.20;0.20;;;;;;;5.59;100.00;101816.69;5064916;28;20049;-80
2021/11/24 02:23:19;;;;;;;0.30;0.30;;;;;;;5.47;100.00;101809.50;5068257;28;20049;-80
2021/11/24 02:25:47;;;;;;;0.20;0.20;;;;;;;5.50;100.00;101804.50;5072474;28;20492;-81
2021/11/24 02:28:21;;;;;;;0.20;0.20;;;;;;;5.43;100.00;101809.13;5086499;28;20049;-80
2021/11/24 02:30:54;;;;;;;0.20;0.20;;;;;;;5.43;100.00;101801.03;5066668;28;20044;-80
2021/11/24 02:33:28;;;;;;;0.30;0.30;;;;;;;5.48;100.00;101800.34;5072202;28;20050;-80
2021/11/24 02:36:03;;;;;;;0.30;0.30;;;;;;;5.46;100.00;101800.59;5068858;28;20048;-80
2021/11/24 02:38:31;;;;;;;0.30;0.30;;;;;;;5.49;100.00;101792.03;5062941;28;20051;-80
2021/11/24 02:41:05;;;;;;;0.25;0.25;;;;;;;5.44;100.00;101792.72;5062744;28;20045;-80
2021/11/24 02:43:38;;;;;;;0.28;0.28;;;;;;;5.39;100.00;101789.81;5068913;28;20043;-81
2021/11/24 02:46:11;;;;;;;0.30;0.30;;;;;;;5.51;100.00;101791.81;5069795;28;20055;-80
2021/11/24 02:48:45;;;;;;;0.30;0.30;;;;;;;5.51;100.00;101791.81;5064260;28;20036;-80
2021/11/24 02:51:14;;;;;;;0.20;0.20;;;;;;;5.51;100.00;101789.13;5064581;28;20068;-80
2021/11/24 02:53:50;;;;;;;0.25;0.25;;;;;;;5.47;100.00;101790.59;5066985;28;20040;-80
2021/11/24 02:56:23;;;;;;;0.20;0.20;;;;;;;5.55;100.00;101790.34;5071120;28;20057;-81
2021/11/24 02:58:56;;;;;;;0.30;0.30;;;;;;;5.55;100.00;101788.47;5065615;28;20412;-80
2021/11/24 03:01:30;;;;;;;0.20;0.20;;;;;;;5.48;100.00;101781.47;5059148;28;20053;-80
2021/11/24 03:04:03;;;;;;;0.20;0.20;;;;;;;5.52;100.00;101778.09;5072388;28;20195;-81
2021/11/24 03:06:38;;;;;;;0.28;0.28;;;;;;;5.48;100.00;101778.75;5062087;28;20052;-81
2021/11/24 03:09:11;;;;;;;0.25;0.25;;;;;;;5.48;100.00;101773.38;5067624;28;20060;-82
2021/11/24 03:11:44;;;;;;;0.20;0.20;;;;;;;5.38;100.00;101769.25;5063210;28;20044;-81
2021/11/24 03:14:17;;;;;;;0.20;0.20;;;;;;;5.55;100.00;101774.97;5065722;28;20048;-81
2021/11/24 03:16:51;;;;;;;0.30;0.30;;;;;;;5.50;100.00;101769.41;5069719;28;20392;-82
2021/11/24 03:19:24;;;;;;;0.30;0.30;;;;;;;5.51;100.00;101768.38;5066255;28;20056;-81
2021/11/24 03:21:59;;;;;;;0.28;0.28;;;;;;;5.52;100.00;101755.69;5071234;28;20412;-81
2021/11/24 03:24:32;;;;;;;0.20;0.20;;;;;;;5.56;100.00;101757.72;5056740;28;20036;-81
2021/11/24 03:27:00;;;;;;;0.20;0.20;;;;;;;5.48;100.00;101751.75;5061164;28;20980;-80
2021/11/24 03:29:33;;;;;;;0.22;0.22;;;;;;;5.47;100.00;101752.81;5057206;28;20048;-81
2021/11/24 03:32:07;;;;;;;0.20;0.20;;;;;;;5.48;100.00;101754.47;5068458;28;20044;-81
2021/11/24 03:34:40;;;;;;;0.30;0.30;;;;;;;5.49;100.00;101748.03;5065952;28;20033;-80
2021/11/24 03:37:17;;;;;;;0.30;0.30;;;;;;;5.50;100.00;101750.50;5074149;28;20040;-81
2021/11/24 03:39:46;;;;;;;0.20;0.20;;;;;;;5.60;100.00;101739.19;5069158;28;20473;-81
2021/11/24 03:42:15;;;;;;;0.30;0.30;;;;;;;5.50;100.00;101742.41;5066424;28;20045;-80
2021/11/24 03:44:49;;;;;;;0.25;0.25;;;;;;;5.49;100.00;101745.31;5067290;28;20059;-81
2021/11/24 03:47:22;;;;;;;0.30;0.30;;;;;;;5.53;100.00;101741.13;5065214;28;20079;-81
2021/11/24 03:49:55;;;;;;;0.20;0.20;;;;;;;5.48;100.00;101744.47;5068644;28;20041;-82
2021/11/24 03:52:29;;;;;;;0.28;0.28;;;;;;;5.48;100.00;101739.06;5059553;28;20056;-81
2021/11/24 03:54:58;;;;;;;0.20;0.20;;;;;;;5.54;100.00;101740.91;5066219;28;20041;-80
2021/11/24 03:57:31;;;;;;;0.20;0.20;;;;;;;5.40;100.00;101745.59;5059082;28;20045;-80
2021/11/24 03:59:59;;;;;;;0.30;0.30;;;;;;;5.51;100.00;101741.34;5067627;28;20059;-80
2021/11/24 04:02:32;;;;;;;0.20;0.20;;;;;;;5.45;100.00;101742.22;5071932;28;20052;-80
2021/11/24 04:05:07;;;;;;;0.20;0.20;;;;;;;5.35;100.00;101736.50;5067821;28;20559;-80
2021/11/24 04:07:42;;;;;;;0.20;0.20;;;;;;;5.32;100.00;101726.13;5063819;28;20040;-80
2021/11/24 04:10:12;;;;;;;0.20;0.20;;;;;;;5.41;100.00;101736.44;5068800;28;20040;-81
2021/11/24 04:12:45;;;;;;;0.20;0.20;;;;;;;5.37;100.00;101732.53;5066858;28;20048;-80
2021/11/24 04:15:16;;;;;;;0.30;0.30;;;;;;;5.47;100.00;101732.03;5064231;28;20049;-81
2021/11/24 04:17:49;;;;;;;0.28;0.28;;;;;;;5.42;100.00;101738.09;5058612;28;20409;-81
2021/11/24 04:20:23;;;;;;;0.25;0.25;;;;;;;5.43;100.00;101733.53;5059591;28;20044;-81
2021/11/24 04:22:53;;;;;;;0.20;0.20;;;;;;;5.40;100.00;101728.53;5061037;28;20062;-80
2021/11/24 04:25:26;;;;;;;0.20;0.20;;;;;;;5.43;100.00;101723.56;5065544;28;20504;-81
2021/11/24 04:28:00;;;;;;;0.20;0.20;;;;;;;5.46;100.00;101724.97;5065512;28;20055;-80
2021/11/24 04:30:33;;;;;;;0.25;0.25;;;;;;;5.49;100.00;101727.25;5060496;28;20059;-81
2021/11/24 04:33:06;;;;;;;0.20;0.20;;;;;;;5.53;100.00;101724.94;5062362;28;20053;-81
2021/11/24 04:35:34;;;;;;;0.20;0.20;;;;;;;5.43;100.00;101720.84;5065754;28;20048;-81
2021/11/24 04:38:09;;;;;;;0.30;0.30;;;;;;;5.49;100.00;101718.31;5063976;28;20056;-80
2021/11/24 04:40:43;;;;;;;0.30;0.30;;;;;;;5.41;100.00;101720.25;5061935;28;20049;-82
2021/11/24 04:43:18;;;;;;;0.30;0.30;;;;;;;5.47;100.00;101726.66;5064438;28;20413;-80
2021/11/24 04:45:47;;;;;;;0.30;0.30;;;;;;;5.49;100.00;101729.13;5064540;28;20048;-80
2021/11/24 04:48:20;;;;;;;0.20;0.20;;;;;;;5.38;100.00;101715.28;5073638;28;20044;-80
2021/11/24 04:50:53;;;;;;;0.25;0.25;;;;;;;5.43;100.00;101720.03;5063818;28;20044;-80
2021/11/24 04:53:28;;;;;;;0.20;0.20;;;;;;;5.51;100.00;101718.91;5066743;28;20059;-80
2021/11/24 04:56:01;;;;;;;0.30;0.30;;;;;;;5.48;100.00;101722.88;5064931;28;20055;-80
2021/11/24 04:58:41;;;;;;;0.30;0.30;;;;;;;5.48;100.00;101713.97;5067250;28;20051;-81
2021/11/24 05:01:15;;;;;;;0.30;0.30;;;;;;;5.51;100.00;101713.50;5062931;28;20044;-81
2021/11/24 05:03:49;;;;;;;0.20;0.20;;;;;;;5.46;100.00;101719.59;5066351;28;20048;-80
2021/11/24 05:06:19;;;;;;;0.22;0.22;;;;;;;5.53;100.00;101709.56;5070955;28;20373;-80
2021/11/24 05:08:53;;;;;;;0.20;0.20;;;;;;;5.41;100.00;101695.97;5066627;28;20053;-80
2021/11/24 05:11:27;;;;;;;0.20;0.20;;;;;;;5.51;100.00;101703.56;5063651;28;20381;-80
2021/11/24 05:14:02;;;;;;;0.22;0.22;;;;;;;5.45;100.00;101702.56;5063184;28;20381;-80
2021/11/24 05:16:37;;;;;;;0.20;0.20;;;;;;;5.67;100.00;101701.34;5068936;28;20055;-80
2021/11/24 05:19:13;;;;;;;0.20;0.20;;;;;;;5.56;100.00;101711.00;5065752;28;20483;-79
2021/11/24 05:21:41;;;;;;;0.20;0.20;;;;;;;5.51;100.00;101710.81;5071130;28;20048;-80
2021/11/24 05:24:16;;;;;;;0.30;0.30;;;;;;;5.58;100.00;101708.91;5057385;28;20064;-80
2021/11/24 05:26:49;;;;;;;0.20;0.20;;;;;;;5.51;100.00;101710.81;5065353;28;20037;-79
2021/11/24 05:29:23;;;;;;;0.22;0.22;;;;;;;5.60;100.00;101713.00;5061036;28;20053;-80
2021/11/24 05:31:52;;;;;;;0.20;0.20;;;;;;;5.58;100.00;101695.41;5055853;28;20084;-80
2021/11/24 05:34:20;;;;;;;0.30;0.30;;;;;;;5.57;100.00;101693.75;5061328;28;20060;-80
2021/11/24 05:36:53;;;;;;;0.20;0.20;;;;;;;5.64;100.00;101699.91;5064425;28;20497;-80
2021/11/24 05:39:28;;;;;;;0.20;0.20;;;;;;;5.56;100.00;101701.00;5065233;28;20055;-79
2021/11/24 05:41:56;;;;;;;0.30;0.30;;;;;;;5.44;100.00;101703.63;5089993;28;20412;-81
2021/11/24 05:44:25;;;;;;;0.20;0.20;;;;;;;5.44;100.00;101700.91;5069011;28;20048;-79
2021/11/24 05:47:06;;;;;;;0.20;0.20;;;;;;;5.53;100.00;101706.84;5070967;28;20048;-80
2021/11/24 05:49:40;;;;;;;0.20;0.20;;;;;;;5.55;100.00;101698.53;5063401;28;20056;-80
2021/11/24 05:52:13;;;;;;;0.20;0.20;;;;;;;5.53;100.00;101711.44;5069344;28;20118;-80
2021/11/24 05:54:47;;;;;;;0.30;0.30;;;;;;;5.60;100.00;101709.50;5068597;28;20052;-80
2021/11/24 05:57:20;;;;;;;0.20;0.20;;;;;;;5.59;100.00;101705.97;5073882;28;20044;-79
2021/11/24 05:59:54;;;;;;;0.20;0.20;;;;;;;5.53;100.00;101700.63;5065749;28;20111;-80
2021/11/24 06:02:22;;;;;;;0.20;0.20;;;;;;;5.47;100.00;101704.19;5072665;28;20504;-80
2021/11/24 06:04:55;;;;;;;0.20;0.20;;;;;;;5.49;100.00;101702.13;5065144;28;20041;-80
2021/11/24 06:07:28;;;;;;;0.20;0.20;;;;;;;5.53;100.00;101697.94;5067740;28;20049;-80
2021/11/24 06:09:58;;;;;;;0.20;0.20;;;;;;;5.52;100.00;101698.97;5060392;28;20049;-80
2021/11/24 06:12:26;;;;;;;0.20;0.20;;;;;;;5.57;100.00;101691.88;5066021;28;20091;-80
2021/11/24 06:14:59;;;;;;;0.20;0.20;;;;;;;5.53;100.00;101687.13;5072094;28;20055;-80
2021/11/24 06:17:27;;;;;;;0.20;0.20;;;;;;;5.53;100.00;101684.44;5069264;28;20060;-80
2021/11/24 06:20:01;;;;;;;0.30;0.30;;;;;;;5.40;100.00;101666.47;5067706;28;20516;-80
2021/11/24 06:22:34;;;;;;;0.30;0.30;;;;;;;5.52;100.00;101682.78;5065515;28;20457;-80
2021/11/24 06:25:10;;;;;;;0.20;0.20;;;;;;;5.48;100.00;101685.09;5079054;28;20055;-81
2021/11/24 06:27:44;;;;;;;0.20;0.20;;;;;;;5.48;100.00;101684.25;5060804;28;20044;-81
2021/11/24 06:30:18;;;;;;;0.20;0.20;;;;;;;5.66;100.00;101687.00;5069817;28;20408;-80
2021/11/24 06:32:48;;;;;;;0.20;0.20;;;;;;;5.61;100.00;101694.97;5063459;28;20373;-80
2021/11/24 06:35:21;;;;;;;0.20;0.20;;;;;;;5.56;100.00;101694.78;5080119;28;20051;-80
2021/11/24 06:37:50;;;;;;;0.20;0.20;;;;;;;5.55;100.00;101696.66;5064975;28;20044;-79
2021/11/24 06:40:24;;;;;;;0.30;0.30;;;;;;;5.45;100.00;101694.47;5067923;28;20052;-81
2021/11/24 06:43:01;;;;;;;0.20;0.20;;;;;;;5.55;100.00;101691.28;5064188;28;20056;-80
2021/11/24 06:45:34;;;;;;;0.30;0.30;;;;;;;5.59;100.00;101687.09;5066490;28;20047;-80
2021/11/24 06:48:02;;;;;;;0.30;0.30;;;;;;;5.45;100.00;101689.06;5064778;28;20045;-80
2021/11/24 06:50:36;;;;;;;0.28;0.28;;;;;;;5.51;100.00;101683.81;5070317;28;20143;-80
2021/11/24 06:53:04;;;;;;;0.28;0.28;;;;;;;5.54;100.00;101680.69;5068060;28;20057;-80
2021/11/24 06:55:39;;;;;;;0.20;0.20;;;;;;;5.64;100.00;101686.41;5072430;28;20508;-81
2021/11/24 06:58:12;;;;;;;0.25;0.25;;;;;;;5.58;100.00;101682.72;5067090;28;20051;-80
2021/11/24 07:00:46;;;;;;;0.25;0.25;;;;;;;5.59;100.00;101692.47;5058656;28;20053;-81
2021/11/24 07:03:20;;;;;;;0.30;0.30;;;;;;;5.65;100.00;101695.31;5078477;28;20057;-81
2021/11/24 07:05:53;;;;;;;0.20;0.20;;;;;;;5.65;100.00;101687.22;5064223;28;20044;-80
2021/11/24 07:08:26;;;;;;;0.20;0.20;;;;;;;5.51;100.00;101687.38;5060534;28;20048;-80
2021/11/24 07:10:56;;;;;;;0.20;0.20;;;;;;;5.55;100.00;101696.66;5064537;28;20051;-80
2021/11/24 07:13:29;;;;;;;0.30;0.30;;;;;;;5.52;100.00;101693.56;5059873;28;20064;-80
2021/11/24 07:16:02;;;;;;;0.20;0.20;;;;;;;5.51;100.00;101698.16;5059629;28;20053;-80
2021/11/24 07:18:35;;;;;;;0.20;0.20;;;;;;;5.67;100.00;101696.75;5062562;28;20051;-80
2021/11/24 07:21:03;;;;;;;0.30;0.30;;;;;;;5.69;100.00;101689.28;5062900;28;20055;-81
2021/11/24 07:23:37;;;;;;;0.20;0.20;;;;;;;5.61;100.00;101695.78;5064056;28;20056;-81
2021/11/24 07:26:06;;;;;;;0.30;0.30;;;;;;;5.73;100.00;101693.19;5061069;28;20053;-76
2021/11/24 07:28:34;;;;;;;0.20;0.20;;;;;;;5.63;100.00;101690.16;5060374;28;20040;-79
2021/11/24 07:31:08;;;;;;;0.20;0.20;;;;;;;5.63;100.00;101698.25;5055972;28;20072;-80
2021/11/24 07:33:42;;;;;;;0.20;0.20;;;;;;;5.62;100.00;101696.59;5064982;28;20052;-80
2021/11/24 07:36:15;;;;;;;0.28;0.28;;;;;;;5.63;100.00;101692.84;5058811;28;20053;-80
2021/11/24 07:38:49;;;;;;;0.20;0.20;;;;;;;5.56;100.00;101681.28;5062439;28;20056;-80
2021/11/24 07:41:23;;;;;;;0.20;0.20;;;;;;;5.64;100.00;101685.59;5059867;28;20045;-80
2021/11/24 07:43:56;;;;;;;0.20;0.20;;;;;;;5.63;100.00;101682.03;5056423;28;20497;-80
2021/11/24 07:46:30;;;;;;;0.20;0.20;;;;;;;5.61;100.00;101684.97;5063153;28;20575;-79
2021/11/24 07:49:04;;;;;;;0.30;0.30;;;;;;;5.72;100.00;101669.91;5064480;28;20520;-80
2021/11/24 07:51:37;;;;;;;0.20;0.20;;;;;;;5.69;100.00;101683.88;5060673;28;20489;-81
2021/11/24 07:54:10;;;;;;;0.20;0.20;;;;;;;5.70;100.00;101671.19;5060274;28;20049;-80
2021/11/24 07:56:44;;;;;;;0.20;0.20;;;;;;;5.68;100.00;101674.09;5066502;28;20416;-80
2021/11/24 07:59:13;;;;;;;0.30;0.30;;;;;;;5.71;100.00;101670.97;5062503;28;20519;-80
2021/11/24 08:01:46;;;;;;;0.28;0.28;;;;;;;5.67;100.00;101658.94;5056723;28;20045;-79
2021/11/24 08:04:19;;;;;;;0.20;0.20;;;;;;;5.75;100.00;101669.47;5063661;28;20052;-80
2021/11/24 08:06:52;;;;;;;0.25;0.25;;;;;;;5.78;100.00;101673.59;5061069;28;20053;-79
2021/11/24 08:09:26;;;;;;;0.20;0.20;;;;;;;5.73;100.00;101676.97;5056326;28;20071;-80
2021/11/24 08:11:56;;;;;;;0.20;0.20;;;;;;;5.71;100.00;101668.25;5058707;28;20051;-80
2021/11/24 08:14:29;;;;;;;0.20;0.20;;;;;;;5.76;100.00;101667.59;5049997;28;20879;-81
2021/11/24 08:17:03;;;;;;;0.20;0.20;;;;;;;5.77;100.00;101670.09;5047215;28;20064;-80
2021/11/24 08:19:32;;;;;;;0.22;0.22;;;;;;;5.78;100.00;101666.31;5047752;28;20079;-80
2021/11/24 08:22:05;;;;;;;0.20;0.20;;;;;;;5.89;100.00;101661.22;5055496;28;20044;-80
2021/11/24 08:24:38;;;;;;;0.20;0.20;;;;;;;5.91;100.00;101656.41;5042143;28;20089;-81
2021/11/24 08:27:12;;;;;;;0.20;0.20;;;;;;;5.89;100.00;101666.63;5044385;28;20048;-80
2021/11/24 08:29:46;;;;;;;0.20;0.20;;;;;;;5.88;100.00;101662.28;5041013;28;20059;-80
2021/11/24 08:32:14;;;;;;;0.20;0.20;;;;;;;5.93;100.00;101654.34;5040400;28;20063;-80
2021/11/24 08:34:43;;;;;;;0.30;0.30;;;;;;;5.92;100.00;101660.78;5044333;28;20435;-81
2021/11/24 08:37:16;;;;;;;0.20;0.20;;;;;;;5.91;100.00;101661.81;5041725;28;20060;-80
2021/11/24 08:39:49;;;;;;;0.20;0.20;;;;;;;5.86;100.00;101659.81;5038542;28;20214;-80
2021/11/24 08:42:25;;;;;;;0.20;0.20;;;;;;;5.87;100.00;101663.31;5038728;28;20396;-80
2021/11/24 08:44:59;;;;;;;0.20;0.20;;;;;;;5.89;100.00;101666.63;5040124;28;20496;-80
2021/11/24 08:47:27;;;;;;;0.28;0.28;;;;;;;5.81;100.00;101656.94;5041659;28;20049;-80
2021/11/24 08:50:00;;;;;;;0.20;0.20;;;;;;;5.79;100.00;101656.34;5040905;28;20577;-80
2021/11/24 08:52:34;;;;;;;0.20;0.20;;;;;;;5.81;100.00;101656.94;5042280;28;20053;-80
2021/11/24 08:55:09;;;;;;;0.20;0.20;;;;;;;5.75;100.00;101655.97;5041119;28;20071;-80
2021/11/24 08:57:44;;;;;;;0.20;0.20;;;;;;;5.83;100.00;101659.41;5037119;28;20253;-82
2021/11/24 09:00:20;;;;;;;0.20;0.20;;;;;;;5.75;100.00;101657.84;5035447;28;20487;-82
2021/11/24 09:02:53;;;;;;;0.20;0.20;;;;;;;5.85;100.00;101662.72;5048075;28;20052;-81
2021/11/24 09:05:27;;;;;;;0.20;0.20;;;;;;;5.80;100.00;101647.19;5045152;28;20060;-81
2021/11/24 09:08:00;;;;;;;0.20;0.20;;;;;;;5.82;100.00;101655.91;5042229;28;20047;-81
2021/11/24 09:10:34;;;;;;;0.20;0.20;;;;;;;5.82;100.00;101650.50;5035182;28;20056;-82
2021/11/24 09:13:09;;;;;;;0.20;0.20;;;;;;;5.85;100.00;101652.75;5045743;28;20064;-81
2021/11/24 09:15:43;;;;;;;0.30;0.30;;;;;;;5.89;100.00;101661.22;5041822;28;20064;-81
2021/11/24 09:18:11;;;;;;;0.30;0.30;;;;;;;5.96;100.00;101654.69;5035394;28;20061;-82
2021/11/24 09:20:39;;;;;;;0.20;0.20;;;;;;;5.97;100.00;101652.84;5040233;28;20061;-82
2021/11/24 09:23:15;;;;;;;0.20;0.20;;;;;;;6.17;100.00;101649.09;5040559;28;20067;-81
2021/11/24 09:25:50;;;;;;;0.20;0.20;;;;;;;6.07;100.00;101652.34;5042129;28;20056;-81
2021/11/24 09:28:22;;;;;;;0.25;0.25;;;;;;;6.04;100.00;101655.50;5039613;28;20063;-81
2021/11/24 09:30:55;;;;;;;0.28;0.28;;;;;;;6.01;100.00;101653.22;5041031;28;20060;-81
2021/11/24 09:33:28;;;;;;;0.30;0.30;;;;;;;6.02;100.00;101649.47;5040263;28;20045;-82
2021/11/24 09:36:02;;;;;;;0.20;0.20;;;;;;;6.01;100.00;101637.00;5038389;28;20072;-81
2021/11/24 09:38:30;;;;;;;0.20;0.20;;;;;;;6.02;100.00;101638.66;5038743;28;20051;-82
2021/11/24 09:41:07;;;;;;;0.20;0.20;;;;;;;6.07;100.00;101636.94;5040451;28;20074;-81
2021/11/24 09:43:40;;;;;;;0.20;0.20;;;;;;;6.20;100.00;101641.38;5041479;28;20055;-84
2021/11/24 09:46:16;;;;;;;0.20;0.20;;;;;;;6.09;100.00;101634.00;5035495;28;20056;-83
2021/11/24 09:48:50;;;;;;;0.20;0.20;;;;;;;6.18;100.00;101634.53;5038545;28;20049;-82
2021/11/24 09:51:20;;;;;;;0.20;0.20;;;;;;;6.13;100.00;101630.63;5038770;28;20048;-83
2021/11/24 09:53:54;;;;;;;0.20;0.20;;;;;;;6.11;100.00;101629.22;5043508;28;20058;-84
2021/11/24 09:56:22;;;;;;;0.25;0.25;;;;;;;6.23;100.00;101624.69;5045213;28;20071;-82
2021/11/24 09:58:52;;;;;;;0.20;0.20;;;;;;;6.26;100.00;101618.00;5040597;28;20501;-83
2021/11/24 10:01:26;;;;;;;0.30;0.30;;;;;;;6.25;100.00;101614.47;5040813;28;20045;-82
2021/11/24 10:04:00;;;;;;;0.20;0.20;;;;;;;6.20;100.00;101600.00;5044356;28;20048;-81
2021/11/24 10:06:34;;;;;;;0.20;0.20;;;;;;;6.24;100.00;101599.31;5038039;28;21884;-83
2021/11/24 10:09:09;;;;;;;0.22;0.22;;;;;;;6.22;100.00;101603.31;5043695;28;20049;-82
2021/11/24 10:11:38;;;;;;;0.20;0.20;;;;;;;6.23;100.00;101604.97;5041431;28;20055;-82
2021/11/24 10:14:13;;;;;;;0.30;0.30;;;;;;;6.24;100.00;101609.28;5040698;28;20057;-82
2021/11/24 10:16:46;;;;;;;0.20;0.20;;;;;;;6.33;100.00;101607.13;5042387;28;20052;-86
2021/11/24 10:19:20;;;;;;;0.20;0.20;;;;;;;6.29;100.00;101602.16;5040193;28;20044;-82
2021/11/24 10:21:56;;;;;;;0.30;0.30;;;;;;;6.28;100.00;101599.66;5036835;28;20685;-81
2021/11/24 10:24:32;;;;;;;0.20;0.20;;;;;;;6.29;100.00;101588.63;5041696;28;20056;-82
2021/11/24 10:27:08;;;;;;;0.20;0.20;;;;;;;6.35;100.00;101608.50;5045080;28;20048;-81
2021/11/24 10:29:54;;;;;;;0.30;0.30;;;;;;;6.42;100.00;101597.63;5041039;28;20056;-81
2021/11/24 10:32:28;;;;;;;0.30;0.30;;;;;;;6.45;100.00;101591.75;5041969;28;20822;-82
2021/11/24 10:35:01;;;;;;;0.20;0.20;;;;;;;6.54;100.00;101582.25;5038519;28;20056;-81
2021/11/24 10:37:36;;;;;;;0.20;0.20;;;;;;;6.50;100.00;101580.25;5039612;28;20067;-81
2021/11/24 10:40:10;;;;;;;0.20;0.20;;;;;;;6.64;100.00;101582.53;5045153;28;20044;-81
2021/11/24 10:42:40;;;;;;;0.20;0.20;;;;;;;6.55;100.00;101574.97;5056078;28;20732;-80
2021/11/24 10:45:13;;;;;;;0.20;0.20;;;;;;;6.67;100.00;101575.00;5046855;28;20102;-80
2021/11/24 10:47:49;;;;;;;0.32;0.30;;;;;;;6.67;100.00;101575.84;5047488;28;20056;-80
2021/11/24 10:50:25;;;;;;;0.20;0.20;;;;;;;6.61;100.00;101572.16;5041093;28;20053;-81
2021/11/24 10:52:54;;;;;;;0.20;0.20;;;;;;;6.67;100.00;101565.03;5045401;28;20052;-81
2021/11/24 10:55:26;;;;;;;0.28;0.28;;;;;;;6.66;100.00;101570.63;5042068;28;20077;-82
2021/11/24 10:58:01;;;;;;;0.20;0.20;;;;;;;6.69;100.00;101565.59;5040171;28;20056;-80
2021/11/24 11:00:39;;;;;;;0.30;0.30;;;;;;;6.69;100.00;101549.38;5041601;28;20677;-80
2021/11/24 11:03:13;;;;;;;0.25;0.25;;;;;;;6.60;100.00;101559.72;5046723;28;20063;-80
2021/11/24 11:05:46;;;;;;;0.20;0.20;;;;;;;6.58;100.00;101556.41;5048884;28;21247;-81
2021/11/24 11:08:20;;;;;;;0.20;0.20;;;;;;;6.60;100.00;101537.22;5038674;28;20056;-80
2021/11/24 11:10:56;;;;;;;0.30;0.30;;;;;;;6.65;100.00;101550.88;5043885;28;20057;-80
2021/11/24 11:13:32;;;;;;;0.20;0.20;;;;;;;6.64;100.00;101551.94;5040963;28;20052;-81
2021/11/24 11:16:06;;;;;;;0.20;0.20;;;;;;;6.72;100.00;101548.91;5047363;28;20048;-80
2021/11/24 11:18:42;;;;;;;0.22;0.22;;;;;;;6.78;100.00;101549.84;5045221;28;20036;-80
2021/11/24 11:21:12;;;;;;;0.20;0.20;;;;;;;6.74;100.00;101545.97;5041124;28;20078;-82
2021/11/24 11:23:48;;;;;;;0.20;0.20;;;;;;;6.78;100.00;101533.63;5038397;28;20150;-82
2021/11/24 11:26:24;;;;;;;0.20;0.20;;;;;;;6.74;100.00;101532.44;5041445;28;20075;-80
2021/11/24 11:28:55;;;;;;;0.20;0.20;;;;;;;6.90;100.00;101514.69;5046262;28;20052;-83
2021/11/24 11:31:31;;;;;;;0.20;0.20;;;;;;;6.75;100.00;101525.97;5045956;28;20056;-81
2021/11/24 11:34:02;;;;;;;0.30;0.30;;;;;;;6.69;100.00;101516.09;5043345;28;20085;-80
2021/11/24 11:36:30;;;;;;;0.20;0.20;;;;;;;6.67;100.00;101516.34;5046968;28;20061;-82
2021/11/24 11:39:04;;;;;;;0.20;0.20;;;;;;;6.58;100.00;101509.59;5045758;28;20089;-80
2021/11/24 11:41:42;;;;;;;0.20;0.20;;;;;;;6.70;100.00;101513.16;5043612;28;20048;-82
2021/11/24 11:44:18;;;;;;;0.20;0.20;;;;;;;6.58;100.00;101518.53;5051523;28;20115;-80
2021/11/24 11:46:54;;;;;;;0.20;0.20;;;;;;;6.49;100.00;101511.00;5043544;28;20056;-81
2021/11/24 11:49:29;;;;;;;0.15;0.15;;;;;;;6.48;100.00;101518.28;5051365;28;20065;-80